KLBE

Arnold Palmer Regional Airport

Latrobe, Pennsylvania, USA
METAR KLBE 172150Z 24008KT 8SM SCT021 BKN032 26/23 A2999
Observed Flight Rules
Aug-17 @ 21:50 UTC (47 minutes ago) Visual Flight Rules
Wind Visibility Clouds
240° at 8 knots 8 miles
  • Scattered at 2,100' AGL
  • Broken at 3,200' AGL
Temperatures Readings
Current 26°C / 79°F
Dewpoint 23°C / 73°F
Humidity 84%
Altimeter 29.99" Hg
Pressure 1016 hPa
Elevation 361
METAR KLBE 172150Z 24008KT 8SM SCT021 BKN032 26/23 A2999
Observed Flight Rules
Aug-17 @ 21:50 UTC
(47 minutes ago)
VFR
Wind Visibility
240° at 8 knots 8 miles
Clouds
  • Scattered at 2,100' AGL
  • Broken at 3,200' AGL
Temperature Dewpoint
26°C / 79°F 23°C / 73°F
Humidity Altimeter Pressure
84% 29.99" Hg 1016 hPa